createdAt,value
2016-11-26T00:00:28.450Z,1015.12
2016-11-26T00:01:07.233Z,1015.07
2016-11-26T00:01:46.015Z,1015.12
2016-11-26T00:02:24.792Z,1015.1
2016-11-26T00:03:03.573Z,1015.1
2016-11-26T00:03:42.354Z,1015.13
2016-11-26T00:04:21.159Z,1015.12
2016-11-26T00:04:59.936Z,1015.13
2016-11-26T00:05:39.106Z,1015.08
2016-11-26T00:06:17.884Z,1015.07
2016-11-26T00:06:56.664Z,1015.08
2016-11-26T00:07:35.446Z,1015.08
2016-11-26T00:08:14.221Z,1015.12
2016-11-26T00:08:52.996Z,1015.1
2016-11-26T00:09:32.128Z,1015.11
2016-11-26T00:10:10.908Z,1015.12
2016-11-26T00:10:49.687Z,1015.09
2016-11-26T00:11:28.467Z,1015.09
2016-11-26T00:12:07.249Z,1015.1
2016-11-26T00:12:46.028Z,1015.09
2016-11-26T00:13:24.809Z,1015.1
2016-11-26T00:14:03.593Z,1015.1
2016-11-26T00:14:42.382Z,1015.13
2016-11-26T00:15:21.178Z,1015.15
2016-11-26T00:15:59.963Z,1015.13
2016-11-26T00:16:38.783Z,1015.1
2016-11-26T00:17:17.565Z,1015.15
2016-11-26T00:17:56.345Z,1015.08
2016-11-26T00:18:35.120Z,1015.11
2016-11-26T00:19:13.905Z,1015.09
2016-11-26T00:19:52.685Z,1015.09
2016-11-26T00:20:31.497Z,1015.05
2016-11-26T00:21:10.277Z,1015.09
2016-11-26T00:21:49.407Z,1015.05
2016-11-26T00:22:28.193Z,1015.05
2016-11-26T00:23:06.973Z,1015.04
2016-11-26T00:23:45.803Z,1015.06
2016-11-26T00:24:24.932Z,1015.08
2016-11-26T00:25:03.714Z,1015.08
2016-11-26T00:25:42.495Z,1015.08
2016-11-26T00:26:21.274Z,1015.07
2016-11-26T00:27:00.056Z,1015.08
2016-11-26T00:27:38.837Z,1015.06
2016-11-26T00:28:17.623Z,1015.01
2016-11-26T00:28:56.404Z,1015
2016-11-26T00:29:35.186Z,1014.99
2016-11-26T00:30:13.965Z,1014.99
2016-11-26T00:30:52.773Z,1015
2016-11-26T00:31:31.558Z,1015.02
2016-11-26T00:32:10.335Z,1015.04
2016-11-26T00:32:49.469Z,1015.04
2016-11-26T00:33:28.251Z,1015.02
2016-11-26T00:34:07.034Z,1015.03
2016-11-26T00:34:45.840Z,1015.05
2016-11-26T00:35:24.628Z,1015
2016-11-26T00:36:03.411Z,1015.01
2016-11-26T00:36:42.202Z,1015.01
2016-11-26T00:37:20.984Z,1015.04
2016-11-26T00:37:59.783Z,1015.02
2016-11-26T00:38:38.575Z,1015.01
2016-11-26T00:39:17.358Z,1014.99
2016-11-26T00:39:56.136Z,1014.96
2016-11-26T00:40:34.919Z,1014.95
2016-11-26T00:41:13.701Z,1015.01
2016-11-26T00:41:52.481Z,1014.97
2016-11-26T00:42:31.260Z,1014.98
2016-11-26T00:43:10.042Z,1014.99
2016-11-26T00:43:48.824Z,1015.01
2016-11-26T00:44:27.602Z,1015.01
2016-11-26T00:45:06.739Z,1014.99
2016-11-26T00:45:45.521Z,1014.95
2016-11-26T00:46:24.301Z,1014.98
2016-11-26T00:47:03.080Z,1014.99
2016-11-26T00:47:41.860Z,1015
2016-11-26T00:48:20.637Z,1014.96
2016-11-26T00:48:59.422Z,1014.99
2016-11-26T00:49:38.235Z,1014.99
2016-11-26T00:50:17.016Z,1014.97
2016-11-26T00:50:55.797Z,1014.97
2016-11-26T00:51:34.576Z,1014.97
2016-11-26T00:52:13.352Z,1014.97
2016-11-26T00:52:52.161Z,1014.96
2016-11-26T00:53:30.943Z,1014.94
2016-11-26T00:54:09.724Z,1014.97
2016-11-26T00:54:48.505Z,1014.94
2016-11-26T00:55:27.282Z,1014.92
2016-11-26T00:56:06.068Z,1014.95
2016-11-26T00:56:44.850Z,1014.95
2016-11-26T00:57:23.636Z,1014.91
2016-11-26T00:58:02.414Z,1014.91
2016-11-26T00:58:41.193Z,1014.91
2016-11-26T00:59:19.982Z,1014.93
2016-11-26T00:59:58.761Z,1014.91
2016-11-26T01:00:37.542Z,1014.91
2016-11-26T01:01:16.357Z,1014.89
2016-11-26T01:01:55.139Z,1014.88
2016-11-26T01:02:33.948Z,1014.86
2016-11-26T01:03:12.729Z,1014.83
2016-11-26T01:03:51.511Z,1014.86
2016-11-26T01:04:30.291Z,1014.8
2016-11-26T01:05:09.070Z,1014.82
2016-11-26T01:05:47.852Z,1014.82
2016-11-26T01:06:26.632Z,1014.83
2016-11-26T01:07:05.417Z,1014.81
2016-11-26T01:07:44.198Z,1014.82
2016-11-26T01:08:23.008Z,1014.83
2016-11-26T01:09:01.787Z,1014.82
2016-11-26T01:09:40.571Z,1014.8
2016-11-26T01:10:19.384Z,1014.81
2016-11-26T01:10:58.163Z,1014.81
2016-11-26T01:11:36.947Z,1014.84
2016-11-26T01:12:15.727Z,1014.83
2016-11-26T01:12:54.509Z,1014.83
2016-11-26T01:13:33.316Z,1014.8
2016-11-26T01:14:12.096Z,1014.82
2016-11-26T01:14:50.874Z,1014.88
2016-11-26T01:15:29.656Z,1014.88
2016-11-26T01:16:08.433Z,1014.86
2016-11-26T01:16:47.213Z,1014.86
2016-11-26T01:17:25.996Z,1014.87
2016-11-26T01:18:04.775Z,1014.83
2016-11-26T01:18:43.562Z,1014.87
2016-11-26T01:19:22.340Z,1014.84
2016-11-26T01:20:01.129Z,1014.83
2016-11-26T01:20:39.912Z,1014.88
2016-11-26T01:21:18.689Z,1014.84
2016-11-26T01:21:57.830Z,1014.86
2016-11-26T01:22:36.619Z,1014.87
2016-11-26T01:23:15.396Z,1014.86
2016-11-26T01:23:54.210Z,1014.88
2016-11-26T01:24:32.990Z,1014.87
2016-11-26T01:25:11.768Z,1014.92
2016-11-26T01:25:50.581Z,1014.89
2016-11-26T01:26:29.369Z,1014.95
2016-11-26T01:27:08.150Z,1014.94
2016-11-26T01:27:46.930Z,1014.91
2016-11-26T01:28:25.713Z,1014.9
2016-11-26T01:29:04.490Z,1014.93
2016-11-26T01:29:43.273Z,1014.94
2016-11-26T01:30:22.055Z,1014.92
2016-11-26T01:31:00.833Z,1014.89
2016-11-26T01:31:39.616Z,1014.9
2016-11-26T01:32:18.393Z,1014.89
2016-11-26T01:32:57.175Z,1014.88
2016-11-26T01:33:35.959Z,1014.87
2016-11-26T01:34:14.736Z,1014.94
2016-11-26T01:34:53.515Z,1014.94
2016-11-26T01:35:32.296Z,1014.94
2016-11-26T01:36:11.078Z,1014.93
2016-11-26T01:36:49.862Z,1014.94
2016-11-26T01:37:28.676Z,1014.94
2016-11-26T01:38:07.458Z,1014.92
2016-11-26T01:38:46.597Z,1014.93
2016-11-26T01:39:25.376Z,1014.93
2016-11-26T01:40:04.261Z,1014.91
2016-11-26T01:40:43.754Z,1014.9
2016-11-26T01:41:22.535Z,1014.89
2016-11-26T01:42:01.319Z,1014.89
2016-11-26T01:42:40.099Z,1014.87
2016-11-26T01:43:18.874Z,1014.9
2016-11-26T01:43:57.656Z,1014.88
2016-11-26T01:44:36.439Z,1014.86
2016-11-26T01:45:15.240Z,1014.86
2016-11-26T01:45:54.022Z,1014.86
2016-11-26T01:46:32.797Z,1014.85
2016-11-26T01:47:11.581Z,1014.86
2016-11-26T01:47:50.362Z,1014.85
2016-11-26T01:48:29.144Z,1014.86
2016-11-26T01:49:07.925Z,1014.85
2016-11-26T01:49:46.712Z,1014.88
2016-11-26T01:50:25.492Z,1014.81
2016-11-26T01:51:04.270Z,1014.8
2016-11-26T01:51:43.073Z,1014.8
2016-11-26T01:52:21.853Z,1014.79
2016-11-26T01:53:00.669Z,1014.84
2016-11-26T01:53:39.447Z,1014.85
2016-11-26T01:54:18.223Z,1014.84
2016-11-26T01:54:57.035Z,1014.79
2016-11-26T01:55:35.819Z,1014.82
2016-11-26T01:56:14.602Z,1014.78
2016-11-26T01:56:53.765Z,1014.79
2016-11-26T01:57:32.551Z,1014.81
2016-11-26T01:58:11.364Z,1014.82
2016-11-26T01:58:50.142Z,1014.77
2016-11-26T01:59:28.923Z,1014.8
2016-11-26T02:00:07.705Z,1014.76
2016-11-26T02:00:46.508Z,1014.74
2016-11-26T02:01:25.289Z,1014.73
2016-11-26T02:02:04.066Z,1014.76
2016-11-26T02:02:42.853Z,1014.73
2016-11-26T02:03:21.633Z,1014.68
2016-11-26T02:04:00.416Z,1014.72
2016-11-26T02:04:39.230Z,1014.71
2016-11-26T02:05:18.010Z,1014.74
2016-11-26T02:05:56.793Z,1014.75
2016-11-26T02:06:35.571Z,1014.75
2016-11-26T02:07:14.352Z,1014.73
2016-11-26T02:07:53.142Z,1014.77
2016-11-26T02:08:31.923Z,1014.79
2016-11-26T02:09:10.704Z,1014.82
2016-11-26T02:09:49.489Z,1014.77
2016-11-26T02:10:28.627Z,1014.76
2016-11-26T02:11:07.407Z,1014.76
2016-11-26T02:11:46.186Z,1014.77
2016-11-26T02:12:24.997Z,1014.75
2016-11-26T02:13:03.791Z,1014.73
2016-11-26T02:13:42.573Z,1014.74
2016-11-26T02:14:21.352Z,1014.79
2016-11-26T02:15:00.136Z,1014.78
2016-11-26T02:15:38.917Z,1014.81
2016-11-26T02:16:17.694Z,1014.79
2016-11-26T02:16:56.835Z,1014.82
2016-11-26T02:17:35.660Z,1014.83
2016-11-26T02:18:14.441Z,1014.8
2016-11-26T02:18:53.222Z,1014.8
2016-11-26T02:19:32.000Z,1014.77
2016-11-26T02:20:10.781Z,1014.79
2016-11-26T02:20:49.559Z,1014.75
2016-11-26T02:21:28.345Z,1014.75
2016-11-26T02:22:07.122Z,1014.73
2016-11-26T02:22:45.901Z,1014.68
2016-11-26T02:23:24.685Z,1014.7
2016-11-26T02:24:03.463Z,1014.66
2016-11-26T02:24:42.244Z,1014.69
2016-11-26T02:25:21.377Z,1014.65
2016-11-26T02:26:00.188Z,1014.63
2016-11-26T02:26:38.973Z,1014.62
2016-11-26T02:27:17.752Z,1014.62
2016-11-26T02:27:56.535Z,1014.61
2016-11-26T02:28:35.314Z,1014.57
2016-11-26T02:29:14.455Z,1014.59
2016-11-26T02:29:53.233Z,1014.63
2016-11-26T02:30:32.010Z,1014.61
2016-11-26T02:31:10.798Z,1014.62
2016-11-26T02:31:49.575Z,1014.62
2016-11-26T02:32:28.351Z,1014.6
2016-11-26T02:33:07.129Z,1014.62
2016-11-26T02:33:45.908Z,1014.61
2016-11-26T02:34:24.688Z,1014.64
2016-11-26T02:35:03.489Z,1014.66
2016-11-26T02:35:42.269Z,1014.64
2016-11-26T02:36:21.046Z,1014.65
2016-11-26T02:36:59.820Z,1014.64
2016-11-26T02:37:38.605Z,1014.69
2016-11-26T02:38:17.387Z,1014.65
2016-11-26T02:38:56.166Z,1014.68
2016-11-26T02:39:34.985Z,1014.63
2016-11-26T02:40:15.794Z,1014.65
2016-11-26T02:40:54.614Z,1014.66
2016-11-26T02:41:33.434Z,1014.65
2016-11-26T02:42:12.257Z,1014.64
2016-11-26T02:42:51.085Z,1014.64
2016-11-26T02:43:29.905Z,1014.65
2016-11-26T02:44:08.725Z,1014.63
2016-11-26T02:44:47.547Z,1014.57
2016-11-26T02:45:26.366Z,1014.59
2016-11-26T02:46:05.214Z,1014.59
2016-11-26T02:46:44.035Z,1014.57
2016-11-26T02:47:22.858Z,1014.62
2016-11-26T02:48:01.683Z,1014.59
2016-11-26T02:48:40.505Z,1014.58
2016-11-26T02:49:19.320Z,1014.6
2016-11-26T02:49:58.143Z,1014.55
2016-11-26T02:50:36.967Z,1014.55
2016-11-26T02:51:15.788Z,1014.56
2016-11-26T02:51:54.608Z,1014.58
2016-11-26T02:52:33.785Z,1014.55
2016-11-26T02:53:12.607Z,1014.61
2016-11-26T02:53:51.431Z,1014.63
2016-11-26T02:54:30.262Z,1014.61
2016-11-26T02:55:09.113Z,1014.58
2016-11-26T02:55:47.934Z,1014.58
2016-11-26T02:56:26.754Z,1014.63
2016-11-26T02:57:05.573Z,1014.59
2016-11-26T02:57:44.398Z,1014.57
2016-11-26T02:58:23.218Z,1014.58
2016-11-26T02:59:02.040Z,1014.58
2016-11-26T02:59:40.865Z,1014.56
2016-11-26T03:00:19.682Z,1014.56
2016-11-26T03:00:58.507Z,1014.52
2016-11-26T03:01:37.330Z,1014.52
2016-11-26T03:02:16.151Z,1014.51
2016-11-26T03:02:54.967Z,1014.51
2016-11-26T03:03:34.144Z,1014.47
2016-11-26T03:04:12.965Z,1014.51
2016-11-26T03:04:51.790Z,1014.51
2016-11-26T03:05:30.611Z,1014.55
2016-11-26T03:06:09.428Z,1014.52
2016-11-26T03:06:48.251Z,1014.53
2016-11-26T03:07:27.071Z,1014.54
2016-11-26T03:08:05.895Z,1014.54
2016-11-26T03:08:44.713Z,1014.56
2016-11-26T03:09:23.538Z,1014.55
2016-11-26T03:10:02.358Z,1014.52
2016-11-26T03:10:41.176Z,1014.5
2016-11-26T03:11:19.995Z,1014.49
2016-11-26T03:11:58.814Z,1014.5
2016-11-26T03:12:37.984Z,1014.48
2016-11-26T03:13:16.803Z,1014.49
2016-11-26T03:13:55.631Z,1014.46
2016-11-26T03:14:34.455Z,1014.49
2016-11-26T03:15:13.285Z,1014.47
2016-11-26T03:15:52.108Z,1014.5
2016-11-26T03:16:30.928Z,1014.44
2016-11-26T03:17:09.746Z,1014.44
2016-11-26T03:17:48.590Z,1014.48
2016-11-26T03:18:27.411Z,1014.44
2016-11-26T03:19:06.233Z,1014.47
2016-11-26T03:19:45.062Z,1014.48
2016-11-26T03:20:23.884Z,1014.49
2016-11-26T03:21:02.733Z,1014.47
2016-11-26T03:21:41.559Z,1014.43
2016-11-26T03:22:20.383Z,1014.46
2016-11-26T03:22:59.212Z,1014.47
2016-11-26T03:23:38.043Z,1014.44
2016-11-26T03:24:16.865Z,1014.42
2016-11-26T03:24:55.685Z,1014.44
2016-11-26T03:25:34.511Z,1014.42
2016-11-26T03:26:13.335Z,1014.38
2016-11-26T03:26:52.161Z,1014.38
2016-11-26T03:27:30.977Z,1014.38
2016-11-26T03:28:09.800Z,1014.35
2016-11-26T03:28:48.723Z,1014.32
2016-11-26T03:29:27.546Z,1014.34
2016-11-26T03:30:06.365Z,1014.35
2016-11-26T03:30:45.187Z,1014.35
2016-11-26T03:31:24.006Z,1014.32
2016-11-26T03:32:02.830Z,1014.32
2016-11-26T03:32:41.659Z,1014.31
2016-11-26T03:33:20.478Z,1014.31
2016-11-26T03:33:59.296Z,1014.32
2016-11-26T03:34:38.122Z,1014.34
2016-11-26T03:35:16.939Z,1014.29
2016-11-26T03:35:55.763Z,1014.31
2016-11-26T03:36:34.611Z,1014.29
2016-11-26T03:37:13.433Z,1014.31
2016-11-26T03:37:52.255Z,1014.32
2016-11-26T03:38:31.079Z,1014.29
2016-11-26T03:39:09.902Z,1014.32
2016-11-26T03:39:48.722Z,1014.26
2016-11-26T03:40:27.543Z,1014.25
2016-11-26T03:41:06.362Z,1014.27
2016-11-26T03:41:45.192Z,1014.22
2016-11-26T03:42:24.013Z,1014.2
2016-11-26T03:43:02.845Z,1014.21
2016-11-26T03:43:41.670Z,1014.2
2016-11-26T03:44:20.493Z,1014.2
2016-11-26T03:44:59.316Z,1014.18
2016-11-26T03:45:38.139Z,1014.16
2016-11-26T03:46:16.959Z,1014.17
2016-11-26T03:46:55.780Z,1014.15
2016-11-26T03:47:34.955Z,1014.15
2016-11-26T03:48:13.777Z,1014.14
2016-11-26T03:48:52.597Z,1014.13
2016-11-26T03:49:31.425Z,1014.13
2016-11-26T03:50:10.251Z,1014.17
2016-11-26T03:50:49.070Z,1014.13
2016-11-26T03:51:27.894Z,1014.13
2016-11-26T03:52:06.716Z,1014.17
2016-11-26T03:52:45.534Z,1014.07
2016-11-26T03:53:24.386Z,1014.14
2016-11-26T03:54:03.209Z,1014.11
2016-11-26T03:54:42.033Z,1014.13
2016-11-26T03:55:20.853Z,1014.14
2016-11-26T03:55:59.675Z,1014.16
2016-11-26T03:56:38.502Z,1014.2
2016-11-26T03:57:17.321Z,1014.21
2016-11-26T03:57:56.145Z,1014.19
2016-11-26T03:58:34.968Z,1014.17
2016-11-26T03:59:13.790Z,1014.22
2016-11-26T03:59:52.609Z,1014.22
2016-11-26T04:00:31.793Z,1014.25
2016-11-26T04:01:10.653Z,1014.22
2016-11-26T04:01:49.473Z,1014.22
2016-11-26T04:02:28.296Z,1014.21
2016-11-26T04:03:07.120Z,1014.25
2016-11-26T04:03:45.942Z,1014.26
2016-11-26T04:04:24.764Z,1014.21
2016-11-26T04:05:03.586Z,1014.23
2016-11-26T04:05:42.409Z,1014.23
2016-11-26T04:06:21.230Z,1014.22
2016-11-26T04:07:00.054Z,1014.23
2016-11-26T04:07:38.875Z,1014.22
2016-11-26T04:08:17.697Z,1014.2
2016-11-26T04:08:56.522Z,1014.23
2016-11-26T04:09:35.337Z,1014.24
2016-11-26T04:10:14.155Z,1014.22
2016-11-26T04:10:52.976Z,1014.22
2016-11-26T04:11:31.798Z,1014.22
2016-11-26T04:12:10.619Z,1014.19
2016-11-26T04:12:49.442Z,1014.25
2016-11-26T04:13:28.266Z,1014.26
2016-11-26T04:14:07.088Z,1014.27
2016-11-26T04:14:45.909Z,1014.25
2016-11-26T04:15:24.726Z,1014.26
2016-11-26T04:16:03.545Z,1014.24
2016-11-26T04:16:42.373Z,1014.22
2016-11-26T04:17:21.190Z,1014.24
2016-11-26T04:18:00.010Z,1014.21
2016-11-26T04:18:38.830Z,1014.19
2016-11-26T04:19:17.649Z,1014.17
2016-11-26T04:19:56.469Z,1014.22
2016-11-26T04:20:35.291Z,1014.22
2016-11-26T04:21:14.112Z,1014.24
2016-11-26T04:21:52.928Z,1014.21
2016-11-26T04:22:31.749Z,1014.25
2016-11-26T04:23:10.573Z,1014.22
2016-11-26T04:23:49.391Z,1014.22
2016-11-26T04:24:28.215Z,1014.24
2016-11-26T04:25:07.038Z,1014.21
2016-11-26T04:25:45.857Z,1014.23
2016-11-26T04:26:24.675Z,1014.21
2016-11-26T04:27:03.497Z,1014.21
2016-11-26T04:27:42.385Z,1014.2
2016-11-26T04:28:21.206Z,1014.2
2016-11-26T04:29:00.028Z,1014.19
2016-11-26T04:29:38.847Z,1014.25
2016-11-26T04:30:17.666Z,1014.22
2016-11-26T04:30:56.485Z,1014.23
2016-11-26T04:31:35.302Z,1014.23
2016-11-26T04:32:14.125Z,1014.24
2016-11-26T04:32:52.940Z,1014.2
2016-11-26T04:33:31.785Z,1014.21
2016-11-26T04:34:10.604Z,1014.21
2016-11-26T04:34:49.425Z,1014.18
2016-11-26T04:35:28.251Z,1014.2
2016-11-26T04:36:07.428Z,1014.19
2016-11-26T04:36:46.247Z,1014.15
2016-11-26T04:37:25.067Z,1014.15
2016-11-26T04:38:03.927Z,1014.15
2016-11-26T04:38:42.749Z,1014.14
2016-11-26T04:39:21.570Z,1014.09
2016-11-26T04:40:00.398Z,1014.1
2016-11-26T04:40:39.218Z,1014.05
2016-11-26T04:41:18.037Z,1014.13
2016-11-26T04:41:56.883Z,1014.12
2016-11-26T04:42:35.703Z,1014.11
2016-11-26T04:43:14.528Z,1014.13
2016-11-26T04:43:53.350Z,1014.11
2016-11-26T04:44:32.168Z,1014.11
2016-11-26T04:45:10.991Z,1014.14
2016-11-26T04:45:49.811Z,1014.13
2016-11-26T04:46:28.632Z,1014.14
2016-11-26T04:47:07.448Z,1014.12
2016-11-26T04:47:46.267Z,1014.14
2016-11-26T04:48:25.096Z,1014.14
2016-11-26T04:49:04.262Z,1014.15
2016-11-26T04:49:43.090Z,1014.12
2016-11-26T04:50:21.908Z,1014.11
2016-11-26T04:51:00.741Z,1014.09
2016-11-26T04:51:39.561Z,1014.09
2016-11-26T04:52:18.384Z,1014.07
2016-11-26T04:52:57.201Z,1014.14
2016-11-26T04:53:36.023Z,1014.13
2016-11-26T04:54:14.839Z,1014.12
2016-11-26T04:54:53.662Z,1014.13
2016-11-26T04:55:32.486Z,1014.12
2016-11-26T04:56:11.307Z,1014.12
2016-11-26T04:56:50.488Z,1014.11
2016-11-26T04:57:29.309Z,1014.13
2016-11-26T04:58:08.131Z,1014.08
2016-11-26T04:58:46.949Z,1014.09
2016-11-26T04:59:25.773Z,1014.05
2016-11-26T05:00:04.596Z,1014.04
2016-11-26T05:00:43.419Z,1014.01
2016-11-26T05:01:22.238Z,1013.99
2016-11-26T05:02:01.058Z,1014.02
2016-11-26T05:02:39.883Z,1013.97
2016-11-26T05:03:18.701Z,1013.99
2016-11-26T05:03:57.526Z,1013.99
2016-11-26T05:04:36.350Z,1014.01
2016-11-26T05:05:15.169Z,1014
2016-11-26T05:05:53.990Z,1014.02
2016-11-26T05:06:32.814Z,1013.99
2016-11-26T05:07:11.636Z,1014.03
2016-11-26T05:07:50.462Z,1014
2016-11-26T05:08:29.284Z,1014.01
2016-11-26T05:09:08.103Z,1013.95
2016-11-26T05:09:46.929Z,1014
2016-11-26T05:10:25.751Z,1013.98
2016-11-26T05:11:04.575Z,1014
2016-11-26T05:11:43.395Z,1013.95
2016-11-26T05:12:22.224Z,1013.94
2016-11-26T05:13:01.047Z,1013.95
2016-11-26T05:13:39.869Z,1013.95
2016-11-26T05:14:18.718Z,1013.93
2016-11-26T05:14:57.536Z,1013.95
2016-11-26T05:15:36.357Z,1013.94
2016-11-26T05:16:15.206Z,1013.96
2016-11-26T05:16:54.028Z,1013.98
2016-11-26T05:17:32.853Z,1013.97
2016-11-26T05:18:11.704Z,1013.97
2016-11-26T05:18:50.524Z,1013.97
2016-11-26T05:19:29.342Z,1013.99
2016-11-26T05:20:08.190Z,1014
2016-11-26T05:20:47.011Z,1014
2016-11-26T05:21:25.835Z,1014.02
2016-11-26T05:22:04.659Z,1013.97
2016-11-26T05:22:43.478Z,1013.98
2016-11-26T05:23:22.327Z,1013.99
2016-11-26T05:24:01.148Z,1013.99
2016-11-26T05:24:39.972Z,1013.99
2016-11-26T05:25:18.822Z,1014.03
2016-11-26T05:25:57.641Z,1014.04
2016-11-26T05:26:36.473Z,1014.01
2016-11-26T05:27:15.290Z,1014.04
2016-11-26T05:27:54.121Z,1014.01
2016-11-26T05:28:32.942Z,1014.02
2016-11-26T05:29:11.760Z,1014.02
2016-11-26T05:29:50.609Z,1013.99
2016-11-26T05:30:29.429Z,1014.01
2016-11-26T05:31:08.248Z,1014.01
2016-11-26T05:31:47.076Z,1014.03
2016-11-26T05:32:25.898Z,1014.02
2016-11-26T05:33:04.717Z,1013.99
2016-11-26T05:33:43.539Z,1013.96
2016-11-26T05:34:22.373Z,1013.98
2016-11-26T05:35:01.200Z,1014.01
2016-11-26T05:35:40.057Z,1013.98
2016-11-26T05:36:18.890Z,1014.04
2016-11-26T05:36:57.720Z,1014.01
2016-11-26T05:37:36.541Z,1014.03
2016-11-26T05:38:15.364Z,1014.04
2016-11-26T05:38:54.188Z,1013.98
2016-11-26T05:39:33.013Z,1014
2016-11-26T05:40:11.841Z,1014.01
2016-11-26T05:40:50.662Z,1014.01
2016-11-26T05:41:29.484Z,1013.97
2016-11-26T05:42:08.312Z,1013.98
2016-11-26T05:42:47.138Z,1013.97
2016-11-26T05:43:25.958Z,1013.95
2016-11-26T05:44:04.776Z,1013.96
2016-11-26T05:44:43.599Z,1013.98
2016-11-26T05:45:22.418Z,1013.97
2016-11-26T05:46:01.242Z,1013.93
2016-11-26T05:46:40.060Z,1013.93
2016-11-26T05:47:18.884Z,1013.96
2016-11-26T05:47:57.706Z,1013.95
2016-11-26T05:48:36.527Z,1013.95
2016-11-26T05:49:15.349Z,1013.94
2016-11-26T05:49:54.171Z,1013.96
2016-11-26T05:50:32.993Z,1013.97
2016-11-26T05:51:11.813Z,1013.99
2016-11-26T05:51:50.633Z,1013.97
2016-11-26T05:52:29.449Z,1013.99
2016-11-26T05:53:08.268Z,1013.97
2016-11-26T05:53:47.094Z,1013.98
2016-11-26T05:54:25.915Z,1014
2016-11-26T05:55:04.765Z,1013.97
2016-11-26T05:55:43.619Z,1013.99
2016-11-26T05:56:22.447Z,1013.94
2016-11-26T05:57:01.270Z,1013.94
2016-11-26T05:57:40.094Z,1013.96
2016-11-26T05:58:18.916Z,1013.94
2016-11-26T05:58:57.732Z,1013.92
2016-11-26T05:59:36.559Z,1013.9
2016-11-26T06:00:15.384Z,1013.9
2016-11-26T06:00:54.204Z,1013.86
2016-11-26T06:01:33.057Z,1013.89
2016-11-26T06:02:11.876Z,1013.83
2016-11-26T06:02:50.696Z,1013.87
2016-11-26T06:03:29.520Z,1013.85
2016-11-26T06:04:08.346Z,1013.91
2016-11-26T06:04:47.167Z,1013.87
2016-11-26T06:05:25.989Z,1013.9
2016-11-26T06:06:04.810Z,1013.89
2016-11-26T06:06:43.665Z,1013.86
2016-11-26T06:07:22.492Z,1013.92
2016-11-26T06:08:01.314Z,1013.9
2016-11-26T06:08:40.134Z,1013.92
2016-11-26T06:09:18.953Z,1013.92
2016-11-26T06:09:57.772Z,1013.96
2016-11-26T06:10:36.590Z,1013.95
2016-11-26T06:11:15.408Z,1013.93
2016-11-26T06:11:54.226Z,1013.93
2016-11-26T06:12:33.045Z,1013.9
2016-11-26T06:13:11.866Z,1013.89
2016-11-26T06:13:50.716Z,1013.85
2016-11-26T06:14:29.564Z,1013.84
2016-11-26T06:15:08.385Z,1013.86
2016-11-26T06:15:47.204Z,1013.82
2016-11-26T06:16:26.028Z,1013.91
2016-11-26T06:17:04.846Z,1013.91
2016-11-26T06:17:43.675Z,1013.92
2016-11-26T06:18:22.498Z,1013.9
2016-11-26T06:19:01.321Z,1013.91
2016-11-26T06:19:40.140Z,1013.94
2016-11-26T06:20:18.970Z,1013.95
2016-11-26T06:20:57.792Z,1013.95
2016-11-26T06:21:36.613Z,1013.96
2016-11-26T06:22:15.441Z,1013.91
2016-11-26T06:22:54.256Z,1013.94
2016-11-26T06:23:33.079Z,1013.93
2016-11-26T06:24:11.904Z,1013.97
2016-11-26T06:24:50.734Z,1013.96
2016-11-26T06:25:29.560Z,1013.95
2016-11-26T06:26:08.384Z,1013.94
2016-11-26T06:26:47.206Z,1013.92
2016-11-26T06:27:26.029Z,1013.96
2016-11-26T06:28:04.849Z,1013.95
2016-11-26T06:28:43.712Z,1013.95
2016-11-26T06:29:22.536Z,1013.99
2016-11-26T06:30:01.351Z,1013.97
2016-11-26T06:30:40.178Z,1013.99
2016-11-26T06:31:18.999Z,1013.98
2016-11-26T06:31:57.830Z,1014.02
2016-11-26T06:32:36.656Z,1014.04
2016-11-26T06:33:15.475Z,1014.06
2016-11-26T06:33:54.294Z,1014.04
2016-11-26T06:34:33.112Z,1014.05
2016-11-26T06:35:11.946Z,1014.07
2016-11-26T06:35:50.765Z,1014.06
2016-11-26T06:36:29.583Z,1014.08
2016-11-26T06:37:08.403Z,1014.06
2016-11-26T06:37:47.218Z,1014.08
2016-11-26T06:38:26.038Z,1014.07
2016-11-26T06:39:04.860Z,1014.1
2016-11-26T06:39:43.684Z,1014.07
2016-11-26T06:40:22.535Z,1014.07
2016-11-26T06:41:01.355Z,1014.05
2016-11-26T06:41:40.182Z,1014.05
2016-11-26T06:42:19.001Z,1014.06
2016-11-26T06:42:57.850Z,1014.06
2016-11-26T06:43:37.028Z,1014.01
2016-11-26T06:44:15.855Z,1014.09
2016-11-26T06:44:54.695Z,1014.09
2016-11-26T06:45:33.520Z,1014.09
2016-11-26T06:46:12.463Z,1014.07
2016-11-26T06:46:51.281Z,1014.05
2016-11-26T06:47:30.101Z,1014.05
2016-11-26T06:48:08.922Z,1014.02
2016-11-26T06:48:47.739Z,1014.02
2016-11-26T06:49:26.562Z,1014.01
2016-11-26T06:50:05.381Z,1014.05
2016-11-26T06:50:44.200Z,1014.05
2016-11-26T06:51:23.020Z,1014.07
2016-11-26T06:52:01.844Z,1014.06
2016-11-26T06:52:40.666Z,1014.06
2016-11-26T06:53:19.481Z,1014.04
2016-11-26T06:53:58.303Z,1014
2016-11-26T06:54:37.123Z,1014.02
2016-11-26T06:55:15.948Z,1014
2016-11-26T06:55:54.826Z,1013.99
2016-11-26T06:56:33.649Z,1014.01
2016-11-26T06:57:12.473Z,1014.02
2016-11-26T06:57:51.293Z,1014
2016-11-26T06:58:30.114Z,1013.98
2016-11-26T06:59:08.933Z,1014
2016-11-26T06:59:47.754Z,1013.97
2016-11-26T07:00:26.577Z,1013.95
2016-11-26T07:01:05.399Z,1013.97
2016-11-26T07:01:44.219Z,1014
2016-11-26T07:02:23.041Z,1013.98
2016-11-26T07:03:02.223Z,1013.95
2016-11-26T07:03:41.048Z,1013.94
2016-11-26T07:04:19.938Z,1013.92
2016-11-26T07:04:58.759Z,1013.91
2016-11-26T07:05:37.579Z,1013.91
2016-11-26T07:06:16.402Z,1013.93
2016-11-26T07:06:55.223Z,1013.93
2016-11-26T07:07:34.043Z,1013.95
2016-11-26T07:08:12.866Z,1013.91
2016-11-26T07:08:51.689Z,1013.95
2016-11-26T07:09:30.511Z,1013.99
2016-11-26T07:10:09.334Z,1013.97
2016-11-26T07:10:48.157Z,1014
2016-11-26T07:11:26.981Z,1014.06
2016-11-26T07:12:05.807Z,1014.09
2016-11-26T07:12:44.629Z,1014.08
2016-11-26T07:13:23.480Z,1014.09
2016-11-26T07:14:02.303Z,1014.1
2016-11-26T07:14:41.123Z,1014.06
2016-11-26T07:15:19.940Z,1014.08
2016-11-26T07:15:58.769Z,1014.06
2016-11-26T07:16:37.605Z,1014.1
2016-11-26T07:17:16.426Z,1014.06
2016-11-26T07:17:55.244Z,1014.07
2016-11-26T07:18:34.068Z,1014.05
2016-11-26T07:19:12.883Z,1013.98
2016-11-26T07:19:51.706Z,1013.96
2016-11-26T07:20:30.529Z,1014
2016-11-26T07:21:09.351Z,1013.99
2016-11-26T07:21:48.173Z,1013.99
2016-11-26T07:22:26.993Z,1013.97
2016-11-26T07:23:05.818Z,1014
2016-11-26T07:23:44.635Z,1013.98
2016-11-26T07:24:23.455Z,1013.99
2016-11-26T07:25:02.278Z,1013.99
2016-11-26T07:25:41.097Z,1013.98
2016-11-26T07:26:19.919Z,1013.93
2016-11-26T07:26:58.744Z,1013.96
2016-11-26T07:27:37.567Z,1013.91
2016-11-26T07:28:16.387Z,1013.91
2016-11-26T07:28:55.214Z,1013.95
2016-11-26T07:29:34.037Z,1013.9
2016-11-26T07:30:12.873Z,1013.92
2016-11-26T07:30:51.692Z,1013.91
2016-11-26T07:31:30.515Z,1013.94
2016-11-26T07:32:09.334Z,1013.93
2016-11-26T07:32:48.161Z,1013.91
2016-11-26T07:33:27.334Z,1013.94
2016-11-26T07:34:06.152Z,1013.97
2016-11-26T07:34:44.974Z,1013.94
2016-11-26T07:35:23.801Z,1013.96
2016-11-26T07:36:02.624Z,1013.95
2016-11-26T07:36:41.447Z,1013.94
2016-11-26T07:37:20.267Z,1013.96
2016-11-26T07:37:59.087Z,1013.92
2016-11-26T07:38:37.904Z,1013.97
2016-11-26T07:39:16.731Z,1013.99
2016-11-26T07:39:55.554Z,1014
2016-11-26T07:40:34.378Z,1013.97
2016-11-26T07:41:13.201Z,1014.02
2016-11-26T07:41:52.026Z,1014.01
2016-11-26T07:42:30.856Z,1014
2016-11-26T07:43:09.677Z,1014.01
2016-11-26T07:43:48.496Z,1013.99
2016-11-26T07:44:27.320Z,1014.01
2016-11-26T07:45:06.143Z,1014.03
2016-11-26T07:45:44.966Z,1014.07
2016-11-26T07:46:23.788Z,1014.08
2016-11-26T07:47:02.968Z,1014.05
2016-11-26T07:47:41.790Z,1014.09
2016-11-26T07:48:20.615Z,1014.08
2016-11-26T07:48:59.462Z,1014.08
2016-11-26T07:49:38.282Z,1014.06
2016-11-26T07:50:17.105Z,1014.07
2016-11-26T07:50:55.932Z,1014.04
2016-11-26T07:51:34.752Z,1014.06
2016-11-26T07:52:13.581Z,1014.08